createdAt,value
2023-05-22T00:07:24.316Z,27.88
2023-05-22T00:17:30.759Z,28.13
2023-05-22T00:27:34.336Z,31.10
2023-05-22T00:37:38.899Z,30.48
2023-05-22T00:57:47.021Z,33.33
2023-05-22T01:18:04.599Z,37.80
2023-05-22T01:28:23.114Z,34.80
2023-05-22T01:38:28.334Z,32.65
2023-05-22T01:48:31.307Z,30.70
2023-05-22T01:58:44.043Z,34.72
2023-05-22T02:08:48.264Z,41.90
2023-05-22T02:18:54.238Z,34.65
2023-05-22T02:28:57.425Z,40.90
2023-05-22T02:39:02.878Z,33.33
2023-05-22T02:49:06.339Z,36.67
2023-05-22T02:59:10.896Z,39.92
2023-05-22T03:09:13.938Z,39.60
2023-05-22T03:19:18.537Z,35.00
2023-05-22T03:39:26.488Z,36.60
2023-05-22T03:49:41.035Z,33.67
2023-05-22T03:59:45.469Z,36.13
2023-05-22T04:09:48.501Z,37.70
2023-05-22T04:19:52.958Z,43.45
2023-05-22T04:29:55.985Z,38.95
2023-05-22T04:40:11.173Z,49.25
2023-05-22T04:50:14.376Z,40.65
2023-05-22T05:00:20.703Z,44.30
2023-05-22T05:10:24.277Z,42.00
2023-05-22T05:30:33.730Z,40.70
2023-05-22T05:40:57.128Z,37.47
2023-05-22T05:51:00.714Z,36.78
2023-05-22T06:01:09.675Z,37.65
2023-05-22T06:11:14.359Z,36.00
2023-05-22T06:21:28.845Z,37.35
2023-05-22T06:31:35.285Z,38.00
2023-05-22T06:41:40.979Z,38.88
2023-05-22T06:51:47.778Z,46.35
2023-05-22T07:01:54.617Z,54.10
2023-05-22T07:12:09.299Z,55.95
2023-05-22T07:22:13.963Z,54.45
2023-05-22T07:32:19.315Z,56.20
2023-05-22T07:42:24.108Z,55.40
2023-05-22T07:52:31.637Z,54.92
2023-05-22T08:02:36.809Z,54.85
2023-05-22T08:12:39.911Z,51.53
2023-05-22T08:22:44.320Z,56.38
2023-05-22T08:32:47.400Z,58.90
2023-05-22T08:42:54.410Z,65.60
2023-05-22T08:52:58.442Z,66.68
2023-05-22T09:03:03.533Z,64.15
2023-05-22T09:13:09.376Z,60.35
2023-05-22T09:23:18.046Z,58.42
2023-05-22T09:33:21.300Z,57.05
2023-05-22T09:43:26.439Z,52.67
2023-05-22T09:53:30.369Z,46.20
2023-05-22T10:03:36.416Z,46.33
2023-05-22T10:13:41.837Z,43.90
2023-05-22T10:23:46.815Z,45.50
2023-05-22T10:33:55.165Z,43.72
2023-05-22T10:43:59.790Z,42.38
2023-05-22T10:54:05.349Z,40.53
2023-05-22T11:04:13.106Z,38.58
2023-05-22T11:14:22.134Z,34.67
2023-05-22T11:24:26.650Z,34.47
2023-05-22T11:34:30.078Z,34.50
2023-05-22T11:44:34.584Z,33.60
2023-05-22T11:54:38.868Z,33.50
2023-05-22T12:04:43.535Z,33.55
2023-05-22T12:14:47.298Z,32.35
2023-05-22T12:24:57.651Z,30.77
2023-05-22T12:35:04.361Z,30.85
2023-05-22T12:45:17.748Z,29.35
2023-05-22T12:55:20.948Z,31.58
2023-05-22T13:05:31.746Z,30.45
2023-05-22T13:15:37.415Z,29.27
2023-05-22T13:25:47.966Z,27.20
2023-05-22T13:35:54.080Z,27.05
2023-05-22T13:46:04.912Z,26.70
2023-05-22T13:56:11.092Z,26.92
2023-05-22T14:06:21.845Z,26.40
2023-05-22T14:16:26.565Z,26.42
2023-05-22T14:26:37.701Z,26.00
2023-05-22T14:36:43.984Z,30.35
2023-05-22T14:46:54.757Z,30.88
2023-05-22T14:56:59.501Z,31.90
2023-05-22T15:07:10.905Z,32.20
2023-05-22T15:17:16.985Z,26.35
2023-05-22T15:27:25.736Z,26.77
2023-05-22T15:37:34.042Z,25.08
2023-05-22T15:47:42.384Z,28.38
2023-05-22T15:57:52.536Z,25.85
2023-05-22T16:07:59.575Z,21.92
2023-05-22T16:18:08.161Z,21.67
2023-05-22T16:28:15.553Z,21.55
2023-05-22T16:38:22.388Z,20.13
2023-05-22T16:48:33.078Z,17.60
2023-05-22T16:58:39.437Z,14.45
2023-05-22T17:08:50.790Z,14.07
2023-05-22T17:18:55.559Z,13.10
2023-05-22T17:29:06.481Z,11.60
2023-05-22T17:39:13.437Z,11.15
2023-05-22T17:49:23.627Z,7.43
2023-05-22T17:59:28.427Z,6.25
2023-05-22T18:09:38.827Z,6.72
2023-05-22T18:19:45.491Z,6.63
2023-05-22T18:29:56.870Z,7.05
2023-05-22T18:40:01.501Z,6.72
2023-05-22T18:50:13.461Z,6.38
2023-05-22T19:00:19.089Z,7.53
2023-05-22T19:10:29.667Z,6.57
2023-05-22T19:20:34.589Z,7.07
2023-05-22T19:30:39.217Z,7.60
2023-05-22T19:40:42.547Z,7.25
2023-05-22T19:50:47.185Z,8.47
2023-05-22T20:00:50.293Z,8.40
2023-05-22T20:10:54.680Z,8.73
2023-05-22T20:20:57.705Z,9.50
2023-05-22T20:31:02.106Z,11.90
2023-05-22T20:41:07.709Z,12.77
2023-05-22T20:51:14.382Z,15.45
2023-05-22T21:01:17.508Z,18.80
2023-05-22T21:11:21.911Z,20.38
2023-05-22T21:31:29.281Z,21.98
2023-05-22T21:51:36.507Z,24.58
2023-05-22T22:01:39.581Z,29.20
2023-05-22T22:11:43.882Z,42.08
2023-05-22T22:21:46.865Z,43.35
2023-05-22T22:31:51.330Z,44.28
2023-05-22T22:41:54.376Z,44.35
2023-05-22T22:51:59.293Z,41.10
2023-05-22T23:02:02.301Z,42.10
2023-05-22T23:12:07.454Z,44.28
2023-05-22T23:22:10.392Z,39.40
2023-05-22T23:32:15.039Z,35.75
2023-05-22T23:52:22.264Z,34.95
